createdAt,value
2023-01-17T00:09:52.825Z,4.88628762541806
2023-01-17T00:16:19.943Z,5.0200668896321075
2023-01-17T00:22:46.693Z,5.74247491638796
2023-01-17T00:33:08.034Z,7.31438127090301
2023-01-17T00:39:34.993Z,8.107023411371237
2023-01-17T00:46:01.959Z,9.73913043478261
2023-01-17T00:52:26.672Z,11.130434782608695
2023-01-17T00:58:51.086Z,11.635451505016722
2023-01-17T01:16:32.754Z,14.05685618729097
2023-01-17T01:22:56.646Z,13.648829431438127
2023-01-17T01:29:19.859Z,10.665551839464882
2023-01-17T01:35:43.888Z,11.535117056856187
2023-01-17T01:47:21.074Z,15.471571906354516
2023-01-17T01:53:45.567Z,11.080267558528428
2023-01-17T02:02:18.563Z,8.073578595317725
2023-01-17T02:08:43.301Z,8.923076923076923
2023-01-17T02:28:26.194Z,11.709030100334449
2023-01-17T02:34:51.149Z,11.715719063545151
2023-01-17T02:41:16.626Z,9.97324414715719
2023-01-17T02:47:40.764Z,10.006688963210703
2023-01-17T03:00:47.555Z,7.311036789297659
2023-01-17T03:07:11.575Z,5.966555183946488
2023-01-17T03:15:50.886Z,3.2073578595317724
2023-01-17T03:22:13.597Z,0.842809364548495
2023-01-17T03:28:36.560Z,0.4983277591973244
2023-01-17T03:39:13.303Z,0.08695652173913043
2023-01-17T03:49:25.252Z,0.07692307692307693
2023-01-17T03:55:49.846Z,0.016722408026755852
2023-01-17T04:02:13.671Z,0.0
2023-01-17T04:08:37.414Z,0.0
2023-01-17T04:15:00.285Z,0.0
2023-01-17T04:21:22.145Z,0.03678929765886288
2023-01-17T04:36:03.440Z,0.0
2023-01-17T04:42:26.221Z,0.006688963210702341
2023-01-17T04:51:33.241Z,0.006688963210702341
2023-01-17T04:57:55.471Z,0.0
2023-01-17T05:04:18.013Z,0.046822742474916385
2023-01-17T05:10:41.319Z,0.0
2023-01-17T05:17:04.678Z,0.0
2023-01-17T05:23:29.673Z,0.020066889632107024
2023-01-17T05:29:56.115Z,0.0
2023-01-17T05:36:21.234Z,0.006688963210702341
2023-01-17T05:42:45.088Z,0.0
2023-01-17T05:49:10.341Z,0.0
2023-01-17T05:55:33.313Z,0.14046822742474915
2023-01-17T06:01:56.912Z,0.016722408026755852
2023-01-17T06:08:19.777Z,0.27759197324414714
2023-01-17T06:14:43.719Z,0.046822742474916385
2023-01-17T06:21:07.700Z,0.06688963210702341
2023-01-17T06:27:32.549Z,0.030100334448160536
2023-01-17T06:33:56.970Z,0.0
2023-01-17T06:40:20.681Z,0.06688963210702341
2023-01-17T06:46:44.968Z,0.08695652173913043
2023-01-17T06:53:10.723Z,0.08695652173913043
2023-01-17T06:59:35.418Z,0.06354515050167224
2023-01-17T07:06:00.796Z,0.0802675585284281
2023-01-17T07:12:26.383Z,0.043478260869565216
2023-01-17T07:24:18.848Z,0.016722408026755852
2023-01-17T07:30:46.049Z,0.03678929765886288
2023-01-17T07:42:58.052Z,0.7324414715719063
2023-01-17T07:49:38.484Z,1.3779264214046822
2023-01-17T07:56:04.937Z,1.0267558528428093
2023-01-17T08:02:31.407Z,0.5986622073578596
2023-01-17T08:09:00.655Z,0.2842809364548495
2023-01-17T08:15:34.946Z,0.026755852842809364
2023-01-17T08:22:02.841Z,0.12709030100334448
2023-01-17T08:28:30.711Z,0.03678929765886288
2023-01-17T08:34:59.970Z,0.010033444816053512
2023-01-17T08:41:27.347Z,0.006688963210702341
2023-01-17T08:47:55.562Z,0.05016722408026756
2023-01-17T08:55:46.664Z,0.782608695652174
2023-01-17T09:02:14.595Z,0.7692307692307693
2023-01-17T09:08:48.232Z,0.47157190635451507
2023-01-17T09:19:24.257Z,0.4414715719063545
2023-01-17T09:27:08.776Z,0.12040133779264214
2023-01-17T09:33:36.446Z,0.10033444816053512
2023-01-17T09:41:06.214Z,0.5050167224080268
2023-01-17T09:50:19.392Z,0.46488294314381273
2023-01-17T09:56:48.635Z,0.38127090301003347
2023-01-17T10:03:18.096Z,0.431438127090301
2023-01-17T10:09:48.143Z,0.7591973244147158
2023-01-17T10:16:18.087Z,0.6521739130434783
2023-01-17T10:22:47.873Z,0.6789297658862876
2023-01-17T10:29:20.053Z,0.03678929765886288
2023-01-17T10:35:53.282Z,0.020066889632107024
2023-01-17T10:42:22.980Z,0.13377926421404682
2023-01-17T10:51:09.627Z,0.16387959866220736
2023-01-17T10:57:38.083Z,0.21739130434782608
2023-01-17T11:08:48.378Z,0.046822742474916385
2023-01-17T11:15:19.107Z,0.2140468227424749
2023-01-17T11:21:48.362Z,0.21070234113712374
2023-01-17T11:28:17.721Z,0.12709030100334448
2023-01-17T11:34:54.517Z,0.07692307692307693
2023-01-17T11:47:50.849Z,0.22408026755852842
2023-01-17T11:54:19.400Z,0.06688963210702341
2023-01-17T12:00:50.067Z,0.24749163879598662
2023-01-17T12:07:18.594Z,0.033444816053511704
2023-01-17T12:13:45.955Z,0.13043478260869565
2023-01-17T12:20:15.004Z,0.20066889632107024
2023-01-17T12:29:35.922Z,0.19732441471571907
2023-01-17T12:36:34.317Z,0.3110367892976589
2023-01-17T12:43:19.213Z,0.09364548494983277
2023-01-17T12:49:48.773Z,0.21739130434782608
2023-01-17T12:56:17.559Z,0.4782608695652174
2023-01-17T13:02:47.751Z,0.18729096989966554
2023-01-17T13:09:15.963Z,0.6153846153846154
2023-01-17T13:15:44.712Z,0.22742474916387959
2023-01-17T13:22:13.373Z,0.21070234113712374
2023-01-17T13:28:43.287Z,0.9899665551839465
2023-01-17T13:35:13.509Z,1.1471571906354514
2023-01-17T13:41:42.544Z,1.5953177257525084
2023-01-17T13:54:05.305Z,2.68561872909699
2023-01-17T14:00:34.680Z,3.5050167224080266
2023-01-17T14:07:04.109Z,5.147157190635451
2023-01-17T14:13:42.098Z,6.8762541806020065
2023-01-17T14:20:11.529Z,6.862876254180602
2023-01-17T14:26:41.084Z,7.638795986622074
2023-01-17T14:33:20.729Z,8.478260869565217
2023-01-17T14:39:50.295Z,5.842809364548495
2023-01-17T14:50:14.607Z,6.832775919732441
2023-01-17T15:07:01.265Z,3.060200668896321
2023-01-17T15:14:01.313Z,3.3277591973244145
2023-01-17T15:22:34.740Z,3.698996655518395
2023-01-17T15:30:56.731Z,3.42809364548495
2023-01-17T15:43:26.224Z,4.153846153846154
2023-01-17T15:49:52.885Z,3.739130434782609
2023-01-17T15:56:18.561Z,4.414715719063545
2023-01-17T16:02:44.988Z,4.086956521739131
2023-01-17T16:09:18.860Z,4.8361204013377925
2023-01-17T16:15:43.077Z,4.79933110367893
2023-01-17T16:22:08.658Z,4.40133779264214
2023-01-17T16:36:11.760Z,4.040133779264214
2023-01-17T16:42:38.205Z,4.4280936454849495
2023-01-17T16:49:05.021Z,4.9799331103678925
2023-01-17T16:55:34.678Z,4.561872909698996
2023-01-17T17:02:03.327Z,5.2274247491638794
2023-01-17T17:19:37.369Z,6.1638795986622075
2023-01-17T17:26:06.614Z,7.6120401337792645
2023-01-17T17:32:34.398Z,7.525083612040134
2023-01-17T17:43:15.855Z,10.933110367892976
2023-01-17T17:55:52.118Z,12.163879598662207
2023-01-17T18:02:19.010Z,12.120401337792643
2023-01-17T18:08:49.395Z,12.882943143812708
2023-01-17T18:15:32.064Z,13.491638795986622
2023-01-17T18:22:01.548Z,14.732441471571907
2023-01-17T18:30:14.262Z,14.779264214046822
2023-01-17T18:37:12.985Z,18.819397993311036
2023-01-17T18:43:43.489Z,16.17725752508361
2023-01-17T18:50:11.196Z,18.672240802675585
2023-01-17T18:56:43.456Z,36.03010033444816
2023-01-17T19:06:25.441Z,55.74581939799331
2023-01-17T19:12:58.604Z,22.86622073578595
2023-01-17T19:27:06.131Z,14.167224080267559
2023-01-17T19:33:34.839Z,13.448160535117056
2023-01-17T19:40:02.757Z,13.397993311036789
2023-01-17T19:46:33.107Z,13.705685618729097
2023-01-17T19:53:04.275Z,13.608695652173912
2023-01-17T20:01:54.167Z,13.053511705685619
2023-01-17T20:08:55.606Z,13.752508361204013
2023-01-17T20:15:26.535Z,14.160535117056856
2023-01-17T20:28:34.319Z,13.538461538461538
2023-01-17T20:35:04.542Z,14.250836120401338
2023-01-17T20:41:33.959Z,13.180602006688963
2023-01-17T20:48:05.015Z,20.70903010033445
2023-01-17T20:54:35.661Z,20.040133779264213
2023-01-17T21:01:06.777Z,16.02675585284281
2023-01-17T21:08:19.492Z,15.702341137123746
2023-01-17T21:17:49.679Z,15.695652173913043
2023-01-17T21:26:44.604Z,17.224080267558527
2023-01-17T21:33:17.213Z,16.779264214046822
2023-01-17T21:42:35.841Z,17.03344481605351
2023-01-17T21:59:13.355Z,14.127090301003344
2023-01-17T22:12:02.925Z,13.354515050167224
2023-01-17T22:18:33.437Z,14.013377926421406
2023-01-17T22:25:14.542Z,14.605351170568563
2023-01-17T22:31:47.952Z,16.702341137123746
2023-01-17T22:44:31.068Z,17.357859531772576
2023-01-17T22:53:13.771Z,17.612040133779264
2023-01-17T23:01:17.457Z,18.692307692307693
2023-01-17T23:15:27.221Z,19.006688963210703
2023-01-17T23:27:42.284Z,19.698996655518396
2023-01-17T23:35:46.683Z,20.36454849498328
2023-01-17T23:46:22.998Z,23.17725752508361
2023-01-17T23:55:28.416Z,22.779264214046822
